Time;durP1;ratioP1;P1;durP2;ratioP2;P2;SDS_P1;SDS_P2;PMS_P1;PMS_P2;Temp;Humidity;BMP_temperature;BMP_pressure;BME280_temperature;BME280_humidity;BME280_pressure;Samples;Min_cycle;Max_cycle;Signal;HPM_P1;HPM_P2
2021/07/10 00:00:48;;;;;;;10.80;8.13;;;23.50;57.90;;;;;;5032877;28;20228;-48
2021/07/10 00:03:14;;;;;;;8.23;7.30;;;23.50;58.00;;;;;;5027543;28;20198;-48
2021/07/10 00:05:40;;;;;;;8.70;7.97;;;23.50;57.90;;;;;;5028391;28;20235;-47
2021/07/10 00:08:05;;;;;;;10.37;7.80;;;23.50;58.00;;;;;;5029853;28;20650;-48
2021/07/10 00:10:31;;;;;;;9.97;8.97;;;23.50;58.10;;;;;;5023794;28;20208;-49
2021/07/10 00:12:57;;;;;;;9.77;7.90;;;23.50;58.00;;;;;;5022899;28;20205;-49
2021/07/10 00:15:24;;;;;;;8.00;7.30;;;23.40;57.90;;;;;;5029314;28;20437;-49
2021/07/10 00:17:50;;;;;;;8.63;7.87;;;23.40;57.90;;;;;;5029430;28;20244;-47
2021/07/10 00:20:17;;;;;;;7.13;6.60;;;23.50;58.00;;;;;;5028722;28;20855;-49
2021/07/10 00:22:43;;;;;;;8.60;7.37;;;23.40;57.90;;;;;;5021974;28;20531;-46
2021/07/10 00:25:11;;;;;;;9.50;8.50;;;23.30;58.00;;;;;;5030274;28;20483;-47
2021/07/10 00:27:39;;;;;;;8.77;7.97;;;23.30;58.20;;;;;;5025697;28;20943;-48
2021/07/10 00:30:06;;;;;;;8.53;7.57;;;23.30;58.10;;;;;;5027655;28;20425;-47
2021/07/10 00:32:32;;;;;;;8.90;8.00;;;23.20;58.00;;;;;;5025941;28;20969;-48
2021/07/10 00:34:58;;;;;;;8.10;7.50;;;23.10;58.40;;;;;;5024437;28;20546;-47
2021/07/10 00:37:23;;;;;;;8.00;7.30;;;23.10;58.60;;;;;;5030095;28;20641;-49
2021/07/10 00:39:49;;;;;;;9.27;7.67;;;23.00;58.80;;;;;;5030790;28;20202;-47
2021/07/10 00:42:17;;;;;;;8.80;8.10;;;22.90;58.90;;;;;;5017579;28;20272;-46
2021/07/10 00:44:43;;;;;;;8.60;7.30;;;23.00;59.00;;;;;;5030994;28;20304;-46
2021/07/10 00:47:09;;;;;;;8.07;7.27;;;23.00;58.90;;;;;;5025765;28;21058;-47
2021/07/10 00:49:35;;;;;;;8.20;7.50;;;22.90;58.70;;;;;;5027612;28;20447;-48
2021/07/10 00:52:00;;;;;;;11.27;8.73;;;22.90;58.60;;;;;;5024942;28;20196;-48
2021/07/10 00:54:26;;;;;;;9.60;8.23;;;22.90;58.80;;;;;;5028867;28;20209;-47
2021/07/10 00:56:57;;;;;;;9.90;7.30;;;22.90;58.60;;;;;;5016058;28;20198;-47
2021/07/10 00:59:25;;;;;;;8.57;7.67;;;22.80;58.80;;;;;;5024309;28;20202;-49
2021/07/10 01:01:51;;;;;;;8.70;7.60;;;22.70;59.00;;;;;;5018925;28;20460;-48
2021/07/10 01:04:17;;;;;;;10.13;8.60;;;22.60;59.30;;;;;;5018346;28;20468;-50
2021/07/10 01:06:42;;;;;;;8.73;7.93;;;22.30;60.00;;;;;;5021544;28;20487;-46
2021/07/10 01:09:08;;;;;;;9.73;7.30;;;22.10;60.70;;;;;;5025674;28;20209;-49
2021/07/10 01:11:34;;;;;;;8.33;7.63;;;22.00;61.10;;;;;;5018522;28;20281;-46
2021/07/10 01:14:01;;;;;;;9.30;8.50;;;22.10;61.20;;;;;;5027755;28;20223;-49
2021/07/10 01:16:27;;;;;;;8.90;8.10;;;22.20;60.60;;;;;;5030117;28;20625;-48
2021/07/10 01:18:52;;;;;;;9.80;8.30;;;22.20;60.30;;;;;;5031022;28;20504;-47
2021/07/10 01:21:18;;;;;;;8.77;7.97;;;22.30;60.10;;;;;;5025606;28;20209;-48
2021/07/10 01:23:43;;;;;;;9.90;8.90;;;22.30;60.10;;;;;;5021234;28;20533;-46
2021/07/10 01:26:09;;;;;;;11.77;8.30;;;22.30;60.10;;;;;;5023269;28;20225;-47
2021/07/10 01:28:35;;;;;;;9.63;8.73;;;22.30;59.90;;;;;;5025388;28;20285;-47
2021/07/10 01:31:00;;;;;;;8.80;8.00;;;22.30;59.70;;;;;;5026155;28;20196;-48
2021/07/10 01:33:26;;;;;;;9.43;8.57;;;22.40;59.70;;;;;;5024005;28;20189;-48
2021/07/10 01:35:52;;;;;;;9.80;8.90;;;22.00;60.10;;;;;;5023937;28;20197;-46
2021/07/10 01:38:17;;;;;;;11.00;9.90;;;22.00;61.10;;;;;;5021016;28;20244;-46
2021/07/10 01:40:43;;;;;;;9.00;8.20;;;22.00;61.10;;;;;;5028326;28;20185;-47
2021/07/10 01:43:10;;;;;;;21.17;9.53;;;22.00;61.70;;;;;;5028149;28;20259;-50
2021/07/10 01:45:36;;;;;;;10.27;9.03;;;21.80;61.10;;;;;;5025992;28;21170;-47
2021/07/10 01:48:03;;;;;;;9.07;8.27;;;21.80;61.90;;;;;;5021692;28;20443;-50
2021/07/10 01:50:29;;;;;;;8.97;8.07;;;21.90;62.10;;;;;;5018645;28;20444;-47
2021/07/10 01:52:56;;;;;;;9.50;8.60;;;21.90;61.70;;;;;;5026017;28;20432;-46
2021/07/10 01:55:22;;;;;;;9.63;8.60;;;21.60;62.70;;;;;;5018910;28;20205;-51
2021/07/10 01:57:50;;;;;;;9.10;8.30;;;21.70;62.50;;;;;;5028629;28;20428;-47
2021/07/10 02:00:22;;;;;;;10.43;8.80;;;21.90;62.00;;;;;;5026975;28;20822;-49
2021/07/10 02:02:48;;;;;;;9.93;8.20;;;21.90;61.50;;;;;;5025398;28;20842;-52
2021/07/10 02:05:19;;;;;;;8.77;8.03;;;22.00;61.40;;;;;;5021078;28;20484;-46
2021/07/10 02:07:46;;;;;;;8.50;7.80;;;22.00;61.10;;;;;;5028772;28;20656;-46
2021/07/10 02:10:13;;;;;;;10.60;8.53;;;22.00;62.50;;;;;;5015803;28;20797;-48
2021/07/10 02:12:40;;;;;;;9.77;7.80;;;22.20;61.30;;;;;;5023379;28;20555;-46
2021/07/10 02:15:07;;;;;;;9.40;7.43;;;22.10;60.30;;;;;;5023694;28;20436;-47
2021/07/10 02:17:34;;;;;;;8.50;7.80;;;22.00;60.60;;;;;;5025197;28;20464;-47
2021/07/10 02:19:59;;;;;;;11.60;7.97;;;21.90;60.50;;;;;;5026202;28;20432;-50
2021/07/10 02:22:25;;;;;;;12.50;7.90;;;21.80;61.00;;;;;;5030385;28;20493;-47
2021/07/10 02:24:50;;;;;;;10.67;7.90;;;21.70;61.30;;;;;;5026452;28;20267;-47
2021/07/10 02:27:17;;;;;;;9.00;8.20;;;21.70;61.50;;;;;;5023013;28;20256;-49
2021/07/10 02:29:43;;;;;;;11.07;7.93;;;21.60;61.80;;;;;;5030791;28;20206;-50
2021/07/10 02:32:09;;;;;;;27.80;9.10;;;21.40;62.40;;;;;;5017240;28;20432;-47
2021/07/10 02:34:34;;;;;;;9.10;8.10;;;21.30;62.80;;;;;;5019605;28;20680;-46
2021/07/10 02:37:00;;;;;;;32.63;9.23;;;21.10;63.50;;;;;;5019478;28;20194;-47
2021/07/10 02:39:25;;;;;;;10.60;8.90;;;21.00;64.20;;;;;;5021511;28;20779;-48
2021/07/10 02:41:51;;;;;;;9.80;8.90;;;20.80;64.30;;;;;;5030214;28;20196;-46
2021/07/10 02:44:17;;;;;;;18.60;8.53;;;20.70;65.00;;;;;;5029539;28;20677;-46
2021/07/10 02:46:42;;;;;;;33.10;8.57;;;20.60;65.70;;;;;;5021037;28;20229;-46
2021/07/10 02:49:08;;;;;;;21.70;9.83;;;20.60;65.90;;;;;;5027541;28;20722;-46
2021/07/10 02:51:34;;;;;;;10.03;9.20;;;20.70;65.70;;;;;;5022929;28;20205;-48
2021/07/10 02:53:59;;;;;;;11.80;8.80;;;20.80;65.50;;;;;;5021609;28;20192;-47
2021/07/10 02:56:25;;;;;;;29.93;8.73;;;20.70;65.30;;;;;;5016264;28;20272;-49
2021/07/10 02:58:52;;;;;;;29.00;8.53;;;20.30;66.30;;;;;;5026227;28;20192;-46
2021/07/10 03:01:18;;;;;;;55.83;10.80;;;20.10;67.50;;;;;;5016646;28;20420;-49
2021/07/10 03:03:45;;;;;;;13.37;9.03;;;20.00;67.10;;;;;;5025630;28;20464;-50
2021/07/10 03:06:12;;;;;;;14.53;9.13;;;20.00;68.30;;;;;;5015139;28;20488;-46
2021/07/10 03:08:39;;;;;;;8.77;7.97;;;20.10;67.70;;;;;;5026370;28;20440;-49
2021/07/10 03:11:05;;;;;;;19.73;8.80;;;20.10;67.70;;;;;;5022216;28;20448;-46
2021/07/10 03:13:31;;;;;;;44.30;9.20;;;20.20;68.40;;;;;;5027036;28;20431;-46
2021/07/10 03:15:56;;;;;;;19.93;7.67;;;20.20;67.60;;;;;;5021442;28;20441;-46
2021/07/10 03:18:22;;;;;;;47.77;9.23;;;19.80;68.60;;;;;;5019561;28;20620;-47
2021/07/10 03:20:48;;;;;;;28.93;8.10;;;19.90;68.70;;;;;;5028546;28;20651;-48
2021/07/10 03:23:13;;;;;;;11.83;7.10;;;19.80;68.40;;;;;;5029029;28;20193;-49
2021/07/10 03:25:41;;;;;;;8.87;7.97;;;19.80;68.90;;;;;;5025511;28;20229;-47
2021/07/10 03:28:07;;;;;;;8.40;7.70;;;19.90;68.50;;;;;;5024077;28;20277;-48
2021/07/10 03:30:33;;;;;;;9.20;7.80;;;20.10;67.70;;;;;;5025270;28;20523;-46
2021/07/10 03:32:59;;;;;;;8.60;7.80;;;20.10;67.40;;;;;;5023110;28;20248;-45
2021/07/10 03:35:25;;;;;;;12.67;8.40;;;20.20;67.20;;;;;;5021889;28;20208;-46
2021/07/10 03:37:51;;;;;;;7.60;6.90;;;20.20;66.90;;;;;;5020534;28;20201;-49
2021/07/10 03:40:20;;;;;;;13.97;7.70;;;20.30;66.70;;;;;;5024398;28;20519;-46
2021/07/10 03:42:46;;;;;;;27.03;8.00;;;20.40;66.60;;;;;;5018835;28;20444;-47
2021/07/10 03:45:13;;;;;;;46.97;8.30;;;20.30;66.60;;;;;;5029261;28;20487;-48
2021/07/10 03:47:39;;;;;;;11.97;7.87;;;20.20;66.70;;;;;;5027079;28;20491;-46
2021/07/10 03:50:07;;;;;;;15.77;7.83;;;20.10;67.50;;;;;;5023108;28;20433;-46
2021/07/10 03:52:33;;;;;;;9.93;7.23;;;20.20;67.40;;;;;;5018384;28;20440;-48
2021/07/10 03:55:00;;;;;;;8.73;7.50;;;20.10;67.40;;;;;;5022164;28;20443;-47
2021/07/10 03:57:27;;;;;;;34.33;8.90;;;20.00;67.50;;;;;;5027942;28;20189;-47
2021/07/10 03:59:52;;;;;;;43.40;8.27;;;19.80;68.10;;;;;;5028156;28;20801;-47
2021/07/10 04:02:18;;;;;;;7.57;6.87;;;19.50;69.10;;;;;;5029087;28;20443;-48
2021/07/10 04:04:43;;;;;;;15.43;8.00;;;19.10;70.80;;;;;;5026930;28;20311;-48
2021/07/10 04:07:09;;;;;;;22.13;8.90;;;19.30;71.20;;;;;;5024813;28;20203;-46
2021/07/10 04:09:34;;;;;;;12.83;7.80;;;19.40;70.70;;;;;;5031624;28;20198;-46
2021/07/10 04:12:00;;;;;;;36.17;9.37;;;19.10;70.50;;;;;;5029730;28;20216;-46
2021/07/10 04:14:26;;;;;;;11.87;6.97;;;18.90;71.20;;;;;;5027895;28;20197;-47
2021/07/10 04:16:52;;;;;;;10.90;7.83;;;19.00;72.40;;;;;;5030631;28;20674;-48
2021/07/10 04:19:17;;;;;;;41.63;9.40;;;19.10;72.30;;;;;;5021356;28;20482;-47
2021/07/10 04:21:43;;;;;;;32.57;8.80;;;19.20;72.60;;;;;;5031054;28;20205;-46
2021/07/10 04:24:08;;;;;;;41.37;8.73;;;19.40;71.20;;;;;;5024061;28;20198;-46
2021/07/10 04:26:34;;;;;;;9.40;6.53;;;19.60;71.10;;;;;;5018386;28;20302;-46
2021/07/10 04:29:00;;;;;;;8.00;7.30;;;19.80;70.70;;;;;;5023713;28;20197;-46
2021/07/10 04:31:25;;;;;;;6.93;6.40;;;20.10;70.40;;;;;;5030534;28;20189;-46
2021/07/10 04:33:51;;;;;;;15.37;7.07;;;20.40;70.00;;;;;;5027271;28;20193;-51
2021/07/10 04:36:16;;;;;;;16.77;7.47;;;20.60;69.10;;;;;;5016348;28;20697;-49
2021/07/10 04:38:42;;;;;;;7.83;7.03;;;20.80;68.30;;;;;;5028958;28;20197;-48
2021/07/10 04:41:08;;;;;;;9.63;7.00;;;20.80;67.40;;;;;;5029362;28;20186;-48
2021/07/10 04:43:35;;;;;;;12.23;6.90;;;20.90;66.90;;;;;;5026915;28;20201;-49
2021/07/10 04:46:01;;;;;;;8.50;6.97;;;20.90;66.70;;;;;;5025160;28;20484;-46
2021/07/10 04:48:27;;;;;;;51.93;9.20;;;21.00;66.40;;;;;;5030907;28;20519;-50
2021/07/10 04:50:52;;;;;;;7.30;6.70;;;21.10;65.40;;;;;;5020057;28;20522;-46
2021/07/10 04:53:18;;;;;;;7.00;6.50;;;21.10;66.00;;;;;;5020838;28;20432;-47
2021/07/10 04:55:44;;;;;;;7.57;6.63;;;21.20;66.10;;;;;;5020948;28;20618;-48
2021/07/10 04:58:09;;;;;;;17.03;7.00;;;21.30;65.90;;;;;;5026088;28;20284;-47
2021/07/10 05:00:35;;;;;;;7.43;6.83;;;21.20;65.00;;;;;;5028258;28;20194;-46
2021/07/10 05:03:01;;;;;;;8.53;7.47;;;21.10;65.70;;;;;;5033121;28;20201;-46
2021/07/10 05:05:27;;;;;;;24.63;7.40;;;21.20;65.60;;;;;;5018395;28;20542;-47
2021/07/10 05:07:53;;;;;;;7.80;6.73;;;21.00;64.70;;;;;;5025121;28;20794;-50
2021/07/10 05:10:18;;;;;;;12.80;6.43;;;20.90;66.50;;;;;;5023030;28;20228;-46
2021/07/10 05:12:44;;;;;;;6.70;6.20;;;21.10;66.20;;;;;;5016142;28;20626;-48
2021/07/10 05:15:11;;;;;;;6.20;5.70;;;21.30;65.80;;;;;;5027526;28;20661;-49
2021/07/10 05:17:37;;;;;;;8.43;7.73;;;21.40;65.60;;;;;;5028957;28;20327;-49
2021/07/10 05:20:05;;;;;;;9.57;7.63;;;21.60;65.70;;;;;;5024298;28;20533;-47
2021/07/10 05:22:31;;;;;;;7.60;7.00;;;21.70;65.00;;;;;;5026237;28;20224;-46
2021/07/10 05:24:56;;;;;;;7.10;6.47;;;21.80;64.10;;;;;;5015682;28;20963;-46
2021/07/10 05:27:22;;;;;;;8.17;7.57;;;21.90;64.20;;;;;;5029685;28;20212;-47
2021/07/10 05:29:47;;;;;;;6.40;6.00;;;21.90;63.20;;;;;;5028126;28;20271;-48
2021/07/10 05:32:13;;;;;;;7.17;6.60;;;21.70;64.70;;;;;;5028100;28;20641;-47
2021/07/10 05:34:39;;;;;;;7.63;6.20;;;21.80;63.90;;;;;;5027141;28;20190;-47
2021/07/10 05:37:06;;;;;;;5.90;5.37;;;21.70;63.60;;;;;;5025677;28;20440;-48
2021/07/10 05:39:32;;;;;;;6.20;5.70;;;21.60;64.50;;;;;;5031336;28;20375;-47
2021/07/10 05:41:57;;;;;;;6.60;6.10;;;21.60;65.80;;;;;;5020293;28;20520;-48
2021/07/10 05:44:23;;;;;;;6.30;5.80;;;21.80;64.10;;;;;;5015863;28;20685;-48
2021/07/10 05:46:49;;;;;;;6.13;5.73;;;22.00;63.40;;;;;;5025384;28;20232;-48
2021/07/10 05:49:15;;;;;;;6.27;5.67;;;22.10;62.70;;;;;;5025199;28;20237;-46
2021/07/10 05:51:40;;;;;;;5.97;5.47;;;22.30;62.40;;;;;;5027046;28;20238;-47
2021/07/10 05:54:06;;;;;;;6.53;5.83;;;22.10;62.50;;;;;;5026158;28;20228;-48
2021/07/10 05:56:31;;;;;;;5.70;4.60;;;21.90;62.50;;;;;;5023104;28;20197;-47
2021/07/10 05:58:57;;;;;;;6.20;5.60;;;22.00;63.50;;;;;;5019711;28;20237;-49
2021/07/10 06:01:22;;;;;;;4.93;4.57;;;22.20;62.30;;;;;;5019274;28;20218;-47
2021/07/10 06:03:48;;;;;;;5.97;5.50;;;22.40;61.70;;;;;;5024369;28;20186;-46
2021/07/10 06:06:14;;;;;;;5.60;5.10;;;22.60;61.10;;;;;;5025297;28;20229;-47
2021/07/10 06:08:40;;;;;;;5.77;5.37;;;22.70;60.60;;;;;;5030749;28;20656;-47
2021/07/10 06:11:06;;;;;;;6.47;6.03;;;22.90;60.40;;;;;;5027119;28;20459;-49
2021/07/10 06:13:31;;;;;;;7.00;6.50;;;23.00;60.20;;;;;;5026565;28;20223;-47
2021/07/10 06:15:57;;;;;;;6.17;5.70;;;23.00;59.70;;;;;;5020410;28;20190;-47
2021/07/10 06:18:22;;;;;;;6.13;5.63;;;23.10;59.70;;;;;;5020131;28;20670;-48
2021/07/10 06:20:48;;;;;;;7.33;6.80;;;23.10;59.70;;;;;;5024052;28;20189;-48
2021/07/10 06:23:13;;;;;;;7.23;6.40;;;22.70;60.90;;;;;;5042776;28;20225;-51
2021/07/10 06:25:39;;;;;;;6.80;6.20;;;22.80;61.50;;;;;;5020458;28;20240;-49
2021/07/10 06:28:06;;;;;;;6.83;6.23;;;22.80;61.10;;;;;;5030251;28;20660;-48
2021/07/10 06:30:33;;;;;;;6.83;6.23;;;22.70;61.30;;;;;;5017620;28;20513;-49
2021/07/10 06:32:59;;;;;;;10.80;6.10;;;22.60;61.90;;;;;;5021484;28;20440;-47
2021/07/10 06:35:24;;;;;;;6.47;5.97;;;22.60;63.40;;;;;;5018602;28;20435;-47
2021/07/10 06:37:50;;;;;;;6.93;6.33;;;22.80;63.00;;;;;;5023053;28;20551;-48
2021/07/10 06:40:17;;;;;;;6.43;5.93;;;22.60;62.50;;;;;;5024303;28;20276;-52
2021/07/10 06:42:44;;;;;;;6.00;5.60;;;22.70;61.80;;;;;;5022816;28;20193;-47
2021/07/10 06:45:11;;;;;;;7.20;6.50;;;22.70;63.30;;;;;;5020410;28;20484;-51
2021/07/10 06:47:38;;;;;;;7.50;6.90;;;22.90;62.00;;;;;;5024823;28;20444;-51
2021/07/10 06:50:05;;;;;;;7.33;6.63;;;23.10;61.40;;;;;;5023999;28;20467;-50
2021/07/10 06:52:31;;;;;;;7.00;6.40;;;23.30;60.60;;;;;;5025261;28;20842;-51
2021/07/10 06:54:57;;;;;;;7.73;7.03;;;23.20;60.40;;;;;;5017550;28;20440;-49
2021/07/10 06:57:23;;;;;;;6.83;6.33;;;23.40;61.10;;;;;;5026653;28;20243;-47
2021/07/10 06:59:48;;;;;;;8.43;6.40;;;23.60;59.90;;;;;;5013669;28;20445;-48
2021/07/10 07:02:14;;;;;;;7.00;6.40;;;23.70;59.60;;;;;;5027297;28;20754;-47
2021/07/10 07:04:40;;;;;;;7.53;6.40;;;23.70;60.10;;;;;;5025237;28;20194;-47
2021/07/10 07:07:06;;;;;;;6.93;6.23;;;23.90;59.80;;;;;;5024657;28;20231;-48
2021/07/10 07:09:32;;;;;;;6.93;6.27;;;24.00;59.90;;;;;;5023239;28;20977;-46
2021/07/10 07:11:57;;;;;;;8.37;7.20;;;24.30;59.60;;;;;;5020530;28;20519;-46
2021/07/10 07:14:23;;;;;;;6.73;6.20;;;24.50;58.50;;;;;;5027283;28;20191;-51
2021/07/10 07:16:48;;;;;;;7.57;6.87;;;24.60;57.90;;;;;;5024044;28;20232;-52
2021/07/10 07:19:14;;;;;;;6.57;6.07;;;24.60;58.00;;;;;;5022319;28;20197;-49
2021/07/10 07:21:40;;;;;;;7.10;6.50;;;24.70;58.80;;;;;;5018092;28;20193;-47
2021/07/10 07:24:06;;;;;;;7.43;6.83;;;24.80;58.20;;;;;;5024829;28;20197;-48
2021/07/10 07:26:32;;;;;;;6.83;6.23;;;24.90;57.80;;;;;;5015476;28;20237;-52
2021/07/10 07:28:58;;;;;;;6.60;6.00;;;25.20;56.90;;;;;;5020454;28;20515;-48
2021/07/10 07:31:24;;;;;;;6.70;6.10;;;25.30;57.50;;;;;;5027732;28;20528;-47
2021/07/10 07:33:49;;;;;;;6.83;6.30;;;25.40;55.90;;;;;;5023197;28;20190;-51
2021/07/10 07:36:15;;;;;;;6.30;5.80;;;25.40;56.60;;;;;;5019734;28;20202;-48
2021/07/10 07:38:41;;;;;;;6.00;5.57;;;25.60;55.70;;;;;;5021736;28;20659;-48
2021/07/10 07:41:07;;;;;;;6.50;6.00;;;25.80;55.00;;;;;;5019874;28;20200;-48
2021/07/10 07:43:33;;;;;;;6.27;5.70;;;26.10;55.10;;;;;;5031947;28;20280;-51
2021/07/10 07:45:59;;;;;;;6.80;6.13;;;26.20;54.30;;;;;;5023471;28;20575;-46
2021/07/10 07:48:24;;;;;;;6.50;5.90;;;26.30;53.60;;;;;;5025255;28;20198;-48
2021/07/10 07:50:50;;;;;;;6.03;5.50;;;26.50;53.40;;;;;;5028447;28;20194;-47
2021/07/10 07:53:18;;;;;;;6.40;5.80;;;26.60;52.60;;;;;;5021815;28;20720;-50
2021/07/10 07:55:44;;;;;;;6.20;5.70;;;26.80;52.40;;;;;;5027651;28;20652;-47
2021/07/10 07:58:09;;;;;;;6.23;5.83;;;26.90;52.00;;;;;;5034186;28;20452;-49
2021/07/10 08:00:35;;;;;;;6.30;5.80;;;27.20;51.80;;;;;;5033661;28;20432;-49
2021/07/10 08:03:01;;;;;;;6.00;5.60;;;27.30;52.30;;;;;;5018101;28;20198;-49
2021/07/10 08:05:27;;;;;;;6.20;5.57;;;27.20;51.10;;;;;;5026642;28;20237;-49
2021/07/10 08:07:53;;;;;;;6.10;5.70;;;27.30;51.20;;;;;;5024424;28;20197;-51
2021/07/10 08:10:19;;;;;;;5.07;4.67;;;27.50;52.30;;;;;;5032013;28;20201;-48
2021/07/10 08:12:49;;;;;;;5.77;5.33;;;27.70;51.10;;;;;;5034654;28;20761;-51
2021/07/10 08:15:16;;;;;;;6.40;5.80;;;27.80;49.60;;;;;;5028982;28;20531;-48
2021/07/10 08:17:47;;;;;;;5.27;4.80;;;27.50;50.10;;;;;;5034484;28;20479;-51
2021/07/10 08:20:13;;;;;;;5.43;4.93;;;27.10;50.00;;;;;;5030783;28;20935;-47
2021/07/10 08:22:39;;;;;;;6.67;5.30;;;27.00;51.20;;;;;;5031431;28;20826;-47
2021/07/10 08:25:06;;;;;;;5.20;4.70;;;27.30;51.50;;;;;;5029557;28;20533;-49
2021/07/10 08:27:32;;;;;;;5.90;5.30;;;27.40;49.50;;;;;;5032305;28;20274;-48
2021/07/10 08:29:58;;;;;;;5.43;4.93;;;27.30;49.90;;;;;;5028239;28;20522;-47
2021/07/10 08:32:24;;;;;;;5.03;4.63;;;27.20;49.30;;;;;;5034045;28;20560;-47
2021/07/10 08:34:50;;;;;;;5.70;5.30;;;27.30;48.60;;;;;;5029058;28;20197;-52
2021/07/10 08:37:16;;;;;;;6.03;5.53;;;27.30;49.00;;;;;;5031151;28;20615;-48
2021/07/10 08:39:42;;;;;;;5.20;4.80;;;27.40;49.10;;;;;;5034224;28;20456;-50
2021/07/10 08:42:08;;;;;;;5.60;5.20;;;27.70;48.40;;;;;;5032240;28;20478;-47
2021/07/10 08:44:34;;;;;;;4.60;4.23;;;27.70;47.80;;;;;;5032380;28;20459;-47
2021/07/10 08:47:00;;;;;;;5.03;4.63;;;27.90;47.60;;;;;;5024950;28;20210;-52
2021/07/10 08:49:26;;;;;;;5.07;4.67;;;28.10;48.40;;;;;;5033428;28;20923;-52
2021/07/10 08:51:52;;;;;;;6.43;4.60;;;28.10;45.00;;;;;;5025902;28;20277;-50
2021/07/10 08:54:18;;;;;;;6.30;4.53;;;28.10;44.90;;;;;;5030922;28;20722;-48
2021/07/10 08:56:45;;;;;;;4.50;4.20;;;28.30;45.80;;;;;;5030127;28;20475;-52
2021/07/10 08:59:11;;;;;;;3.83;3.60;;;28.40;45.00;;;;;;5024509;28;20200;-48
2021/07/10 09:01:37;;;;;;;5.13;4.50;;;28.60;44.90;;;;;;5021975;28;20796;-52
2021/07/10 09:04:05;;;;;;;5.03;4.63;;;28.90;47.00;;;;;;5030739;28;20789;-52
2021/07/10 09:06:31;;;;;;;5.07;4.67;;;29.00;44.50;;;;;;5021662;28;20492;-51
2021/07/10 09:08:56;;;;;;;5.10;4.70;;;28.90;45.90;;;;;;5031366;28;20436;-52
2021/07/10 09:11:23;;;;;;;5.20;4.80;;;29.00;44.50;;;;;;5023885;28;20665;-53
2021/07/10 09:13:55;;;;;;;7.33;5.13;;;28.70;44.90;;;;;;5031342;28;20623;-47
2021/07/10 09:16:29;;;;;;;6.17;4.20;;;28.90;46.00;;;;;;5024374;28;20475;-48
2021/07/10 09:19:08;;;;;;;5.00;4.70;;;29.20;45.40;;;;;;5019916;28;20785;-47
2021/07/10 09:21:46;;;;;;;4.30;4.00;;;29.50;44.20;;;;;;5024262;28;20441;-52
2021/07/10 09:24:14;;;;;;;5.00;4.50;;;29.60;45.70;;;;;;5032432;28;20440;-53
2021/07/10 09:26:52;;;;;;;5.23;4.83;;;29.80;44.20;;;;;;5027925;28;20484;-47
2021/07/10 09:29:23;;;;;;;5.40;4.90;;;29.90;43.70;;;;;;5031726;28;21429;-49
2021/07/10 09:32:01;;;;;;;5.20;4.90;;;30.00;44.00;;;;;;5021547;28;20460;-48
2021/07/10 09:34:39;;;;;;;5.17;4.67;;;30.30;44.00;;;;;;5028114;28;20912;-51
2021/07/10 09:37:05;;;;;;;4.80;4.50;;;30.10;42.00;;;;;;5024862;28;20440;-48
2021/07/10 09:39:34;;;;;;;4.90;4.57;;;29.60;43.20;;;;;;5027377;28;20432;-49
2021/07/10 09:42:02;;;;;;;4.90;4.60;;;29.30;44.10;;;;;;5027599;28;20200;-47
2021/07/10 09:44:41;;;;;;;4.67;4.27;;;29.30;44.00;;;;;;5026206;28;20460;-47
2021/07/10 09:47:07;;;;;;;5.37;4.87;;;29.50;44.30;;;;;;5029201;28;20821;-48
2021/07/10 09:49:33;;;;;;;4.93;4.53;;;29.70;44.00;;;;;;5020249;28;20440;-52
2021/07/10 09:52:05;;;;;;;4.60;4.30;;;29.90;43.60;;;;;;5024547;28;20512;-49
2021/07/10 09:54:37;;;;;;;4.73;4.43;;;30.10;43.60;;;;;;5022359;28;20492;-51
2021/07/10 09:57:10;;;;;;;5.30;4.80;;;29.80;42.10;;;;;;5018111;28;21113;-48
2021/07/10 09:59:44;;;;;;;3.87;3.57;;;29.50;44.20;;;;;;5031210;28;20490;-48
2021/07/10 10:02:17;;;;;;;4.90;4.53;;;29.90;44.10;;;;;;5024483;28;20444;-47
2021/07/10 10:04:43;;;;;;;3.87;3.67;;;30.40;43.10;;;;;;5026268;28;20444;-48
2021/07/10 10:07:18;;;;;;;4.53;4.13;;;30.70;43.00;;;;;;5023036;28;20444;-50
2021/07/10 10:09:45;;;;;;;4.50;4.10;;;31.00;42.00;;;;;;5020568;28;20451;-48
2021/07/10 10:12:16;;;;;;;4.40;4.10;;;30.40;41.20;;;;;;5023257;28;20490;-50
2021/07/10 10:14:57;;;;;;;5.40;4.83;;;30.00;42.20;;;;;;5020811;28;20551;-48
2021/07/10 10:17:25;;;;;;;4.40;4.03;;;30.40;42.40;;;;;;5029815;28;20491;-47
2021/07/10 10:19:51;;;;;;;4.43;4.13;;;30.70;42.00;;;;;;5022519;28;20850;-51
2021/07/10 10:22:18;;;;;;;6.73;4.83;;;30.50;42.30;;;;;;5019941;28;20432;-48
2021/07/10 10:24:51;;;;;;;3.97;3.67;;;30.60;42.10;;;;;;5025728;28;20471;-49
2021/07/10 10:27:17;;;;;;;4.13;3.93;;;30.70;41.70;;;;;;5020575;28;20486;-48
2021/07/10 10:29:44;;;;;;;4.50;4.20;;;31.00;41.40;;;;;;5030177;28;20810;-48
2021/07/10 10:32:10;;;;;;;4.37;3.97;;;31.30;40.70;;;;;;5017715;28;20452;-49
2021/07/10 10:34:37;;;;;;;4.10;3.80;;;31.40;40.60;;;;;;5025857;28;20428;-50
2021/07/10 10:37:03;;;;;;;4.97;4.00;;;31.70;41.80;;;;;;5025767;28;20436;-50
2021/07/10 10:39:34;;;;;;;4.13;3.87;;;31.90;40.70;;;;;;5031885;28;20443;-49
2021/07/10 10:42:29;;;;;;;3.73;3.50;;;32.10;40.50;;;;;;5024203;28;20456;-52
2021/07/10 10:44:57;;;;;;;3.60;3.30;;;32.40;39.00;;;;;;5020398;28;20452;-51
2021/07/10 10:47:24;;;;;;;3.40;3.10;;;32.40;37.10;;;;;;5021789;28;20445;-52
2021/07/10 10:49:53;;;;;;;3.10;2.90;;;32.50;37.00;;;;;;5020861;28;20935;-49
2021/07/10 10:52:34;;;;;;;3.80;3.50;;;32.50;36.10;;;;;;5017297;28;20466;-48
2021/07/10 10:55:02;;;;;;;3.73;3.43;;;32.60;36.60;;;;;;5026008;28;20436;-51
2021/07/10 10:57:44;;;;;;;3.60;3.40;;;32.60;38.60;;;;;;5017529;28;20437;-48
2021/07/10 11:00:22;;;;;;;3.70;3.20;;;32.60;38.90;;;;;;5021977;28;20444;-51
2021/07/10 11:02:53;;;;;;;3.63;3.40;;;32.60;38.00;;;;;;5019567;28;20526;-49
2021/07/10 11:05:35;;;;;;;3.60;3.40;;;32.70;36.60;;;;;;5016975;28;20844;-47
2021/07/10 11:08:19;;;;;;;3.40;3.20;;;32.80;37.40;;;;;;5026708;28;20471;-49
2021/07/10 11:10:48;;;;;;;2.97;2.77;;;32.80;35.80;;;;;;5034817;28;20448;-48
2021/07/10 11:13:34;;;;;;;3.50;3.20;;;32.80;38.00;;;;;;5022366;28;20912;-51
2021/07/10 11:16:09;;;;;;;3.83;3.53;;;32.90;36.40;;;;;;5024102;28;20585;-52
2021/07/10 11:18:51;;;;;;;3.30;3.10;;;33.00;36.70;;;;;;5030021;28;20529;-49
2021/07/10 11:21:35;;;;;;;3.47;3.17;;;33.10;36.70;;;;;;5024628;28;20952;-49
2021/07/10 11:26:56;;;;;;;3.20;3.00;;;33.20;37.00;;;;;;5033997;28;20990;-48
2021/07/10 11:29:32;;;;;;;3.20;3.00;;;33.20;36.40;;;;;;5029586;28;20443;-47
2021/07/10 11:32:13;;;;;;;3.33;3.13;;;33.10;37.30;;;;;;5031977;28;20431;-52
2021/07/10 11:34:59;;;;;;;3.23;3.03;;;33.10;37.30;;;;;;5029919;28;20527;-51
2021/07/10 11:37:26;;;;;;;5.30;3.33;;;32.90;34.50;;;;;;5027262;28;20444;-51
2021/07/10 11:39:55;;;;;;;3.70;3.50;;;32.90;35.60;;;;;;5030553;28;20426;-48
2021/07/10 11:42:21;;;;;;;3.43;3.13;;;32.50;35.60;;;;;;5033666;28;20447;-50
2021/07/10 11:44:57;;;;;;;2.80;2.60;;;32.30;38.10;;;;;;5033893;28;20442;-48
2021/07/10 11:47:39;;;;;;;3.90;2.90;;;32.60;38.20;;;;;;5026503;28;20473;-52
2021/07/10 11:50:23;;;;;;;4.17;3.30;;;32.70;37.10;;;;;;5032280;28;20428;-52
2021/07/10 11:53:00;;;;;;;3.90;3.70;;;33.10;37.90;;;;;;5033654;28;20436;-48
2021/07/10 11:55:28;;;;;;;3.40;3.13;;;33.20;36.00;;;;;;5029447;28;20443;-50
2021/07/10 11:57:53;;;;;;;3.80;3.50;;;32.80;36.30;;;;;;5026854;28;20494;-52
2021/07/10 12:00:22;;;;;;;3.37;3.17;;;32.90;36.70;;;;;;5029976;28;20437;-50
2021/07/10 12:02:48;;;;;;;3.83;3.53;;;33.00;35.40;;;;;;5032888;28;20331;-49
2021/07/10 12:05:19;;;;;;;3.17;2.90;;;33.20;36.10;;;;;;5023619;28;20554;-48
2021/07/10 12:07:54;;;;;;;2.97;2.77;;;32.90;34.30;;;;;;5028308;28;20196;-51
2021/07/10 12:10:26;;;;;;;3.10;2.90;;;32.90;35.50;;;;;;5028786;28;20452;-50
2021/07/10 12:13:01;;;;;;;3.90;3.17;;;33.20;35.10;;;;;;5029345;28;20859;-52
2021/07/10 12:15:32;;;;;;;3.70;3.27;;;33.40;35.40;;;;;;5020586;28;20435;-50
2021/07/10 12:18:01;;;;;;;2.80;2.60;;;33.90;34.60;;;;;;5018840;28;20476;-51
2021/07/10 12:20:34;;;;;;;3.23;3.03;;;33.30;34.60;;;;;;5016809;28;20444;-51
2021/07/10 12:23:05;;;;;;;3.40;3.20;;;32.70;36.30;;;;;;5018028;28;20448;-53
2021/07/10 12:25:53;;;;;;;3.97;3.20;;;32.50;36.70;;;;;;5027370;28;20955;-51
2021/07/10 12:28:38;;;;;;;3.60;3.30;;;32.90;36.00;;;;;;5022639;28;20440;-51
2021/07/10 12:31:35;;;;;;;2.60;2.50;;;33.60;33.70;;;;;;5021470;28;20433;-51
2021/07/10 12:34:03;;;;;;;2.90;2.70;;;34.10;33.30;;;;;;5029997;28;20494;-51
2021/07/10 12:36:30;;;;;;;3.17;2.87;;;34.30;33.30;;;;;;5024627;28;20463;-51
2021/07/10 12:39:05;;;;;;;2.87;2.77;;;34.40;34.90;;;;;;5025060;28;20433;-48
2021/07/10 12:41:34;;;;;;;2.83;2.63;;;34.50;32.40;;;;;;5026484;28;20484;-50
2021/07/10 12:44:19;;;;;;;2.87;2.77;;;34.10;32.20;;;;;;5019811;28;20455;-50
2021/07/10 12:46:52;;;;;;;2.90;2.80;;;33.20;32.90;;;;;;5030199;28;20483;-50
2021/07/10 12:49:19;;;;;;;4.00;2.47;;;33.00;33.00;;;;;;5027697;28;20436;-49
2021/07/10 12:51:45;;;;;;;2.57;2.43;;;33.20;33.20;;;;;;5018788;28;20428;-52